Flight Track Log - Related Links

Times and Time Zones

All times are in EDT time to prevent confusion due to time zone crossing. See the AAL2137 flight status page for this flight to view local times or setup timezone preferences in your user account.

Time Position Orientation Groundspeed Altitude Reporting Facility
EDT Latitude Longitude Course Direction KTS MPH feet Rate Location/Type
Sat 06:40:54 PM 32.8500 -97.0500 164° South 177 204 2,300  Level Dallas / Fort Worth TRACON
Sat 06:42:00 PM 32.5412 -96.8891 157° South  Level Estimated
Sat 06:42:27 PM 32.7514 -97.0453 178° South 224 258 4,900  Level Fort Worth Center
Sat 06:43:00 PM 32.4226 -96.8397 159° South  Level Estimated
Sat 06:43:27 PM 32.6867 -97.0161 159° South 258 297 6,900  Level Fort Worth Center
Sat 06:44:00 PM 32.2939 -96.8079 148° Southeast  Level FlightAware Approximate
Sat 06:44:27 PM 32.6050 -96.9744 157° South 288 331 9,100  Level Fort Worth Center
Sat 06:45:00 PM 32.1744 -96.7637 164° South  Level FlightAware Approximate
Sat 06:45:27 PM 32.5278 -96.9353 157° South 302 348 10,800  Level Fort Worth Center
Sat 06:46:00 PM 32.0535 -96.7234 164° South  Level FlightAware Approximate
Sat 06:46:27 PM 32.4314 -96.8917 159° South 347 399 12,400  Level Fort Worth Center
Sat 06:47:27 PM 32.3456 -96.8453 155° Southeast 377 434 13,700 1,900 Climbing Fort Worth Center
Sat 06:48:27 PM 32.2453 -96.8017 160° South 409 471 16,200 2,950 Climbing Fort Worth Center
Sat 06:49:27 PM 32.1156 -96.7511 162° South 414 476 19,600 2,750 Climbing Fort Worth Center
Sat 06:50:27 PM 32.0025 -96.7078 162° South 419 482 21,700 2,200 Climbing Fort Worth Center
Sat 06:51:27 PM 31.8917 -96.6669 163° South 421 484 24,000 2,000 Climbing Fort Worth Center
Sat 06:52:27 PM 31.7767 -96.6192 161° South 427 491 25,700 1,410 Climbing Fort Worth Center
Sat 06:54:47 PM 31.5125 -96.5108 161° South 468 539 28,700 1,307 Climbing Houston Center
Sat 06:55:49 PM 31.3869 -96.4625 162° South 468 539 30,100 1,610 Climbing Houston Center
Sat 06:56:50 PM 31.2394 -96.4053 162° South 472 543 32,000 1,463 Climbing Houston Center
Sat 06:57:52 PM 31.1281 -96.3164 146° Southeast 478 550 33,100 1,161 Climbing Houston Center
Sat 06:58:54 PM 31.0153 -96.2272 146° Southeast 482 555 34,400 1,258 Climbing Houston Center
Sat 06:59:56 PM 30.9042 -96.1389 146° Southeast 476 548 35,700 1,122 Climbing Houston Center
Sat 07:00:57 PM 30.7939 -96.0517 146° Southeast 473 544 36,700 634 Climbing Houston Center
Sat 07:01:59 PM 30.6853 -95.9686 147° Southeast 468 539 37,000 145 Climbing Houston Center
Sat 07:03:01 PM 30.5828 -95.8864 145° Southeast 466 536 37,000  Level Houston Center
Sat 07:04:02 PM 30.4747 -95.8000 145° Southeast 470 541 37,000  Level Houston Center
Sat 07:05:04 PM 30.3442 -95.6994 146° Southeast 468 539 37,000  Level Houston Center
Sat 07:06:07 PM 30.2353 -95.6067 144° Southeast 472 543 37,000  Level Houston Center
Sat 07:07:07 PM 30.1317 -95.5183 144° Southeast 475 547 37,000  Level Houston Center
Sat 07:08:09 PM 30.0253 -95.4294 144° Southeast 474 545 37,000  Level Houston Center
Sat 07:09:10 PM 29.9181 -95.3406 144° Southeast 474 545 37,000  Level Houston Center
Sat 07:10:12 PM 29.8100 -95.2506 144° Southeast 476 548 37,000 -48 Level Houston Center
Sat 07:11:14 PM 29.6903 -95.1525 145° Southeast 478 550 36,900  Descending Houston Center
Sat 07:12:16 PM 29.5800 -95.0619 144° Southeast 484 557 37,000 49 Climbing Houston Center
Sat 07:13:17 PM 29.4711 -94.9706 144° Southeast 491 565 37,000  Level Houston Center
Sat 07:14:19 PM 29.3600 -94.8792 144° Southeast 490 564 37,000  Level Houston Center
Sat 07:15:21 PM 29.2489 -94.7881 144° Southeast 490 564 37,000  Level Houston Center
Sat 07:16:22 PM 29.1147 -94.6797 145° Southeast 491 565 37,000  Level Houston Center
Sat 07:17:24 PM 29.0011 -94.5872 145° Southeast 499 574 37,000  Level Houston Center
Sat 07:18:26 PM 28.8881 -94.4961 145° Southeast 498 573 37,000  Level Houston Center
Sat 07:19:27 PM 28.7772 -94.4047 144° Southeast 494 568 37,000  Level Houston Center
Sat 07:20:29 PM 28.6661 -94.3153 145° Southeast 491 565 37,000  Level Houston Center
Sat 07:21:31 PM 28.5544 -94.2258 145° Southeast 491 565 37,000  Level Houston Center
Sat 07:22:33 PM 28.4436 -94.1372 145° Southeast 488 562 37,000  Level Houston Center
Sat 07:23:34 PM 28.3122 -94.0300 144° Southeast 486 559 37,000  Level Houston Center
Sat 07:24:36 PM 28.2025 -93.9419 145° Southeast 483 556 37,000  Level Houston Center
Sat 07:25:38 PM 28.0917 -93.8553 145° Southeast 483 556 37,000  Level Houston Center
Sat 07:26:40 PM 27.9814 -93.7669 145° Southeast 485 558 37,000  Level Houston Center
Sat 07:27:41 PM 27.8689 -93.6775 145° Southeast 491 565 37,000  Level Houston Center
Sat 07:28:43 PM 27.7578 -93.5892 145° Southeast 489 563 37,000  Level Houston Center
Sat 07:29:45 PM 27.6461 -93.5011 145° Southeast 489 563 37,000  Level Houston Center
Sat 07:30:46 PM 27.5331 -93.4114 145° Southeast 495 570 37,000  Level Houston Center
Sat 07:31:48 PM 27.3986 -93.3047 145° Southeast 494 568 37,000  Level Houston Center
Sat 07:32:50 PM 27.2853 -93.2183 146° Southeast 492 566 37,000  Level Houston Center
Sat 07:33:51 PM 27.1750 -93.1275 144° Southeast 492 566 37,000  Level Houston Center
Sat 07:34:53 PM 27.0617 -93.0439 147° Southeast 489 563 37,000  Level Houston Center
Sat 07:35:55 PM 26.9544 -92.9583 145° Southeast 487 560 37,000 -48 Level Houston Center
Sat 07:36:57 PM 26.8214 -92.8539 145° Southeast 487 560 36,900 -97 Descending Houston Center
Sat 07:38:00 PM 26.7122 -92.7753 149° Southeast  Level FlightAware Approximate
Sat 07:45:00 PM 25.9648 -92.2854 149° Southeast  Level FlightAware Approximate
Sat 07:46:00 PM 25.8579 -92.2159 150° Southeast  Level FlightAware Approximate
Sat 07:47:00 PM 25.7513 -92.1460 149° Southeast  Level FlightAware Approximate
Sat 07:48:00 PM 25.6447 -92.0760 149° Southeast  Level FlightAware Approximate
Sat 07:49:00 PM 25.5381 -92.0062 149° Southeast  Level FlightAware Approximate
Sat 07:50:00 PM 25.4314 -91.9364 149° Southeast  Level FlightAware Approximate
Sat 07:51:00 PM 25.3248 -91.8668 149° Southeast  Level FlightAware Approximate
Sat 07:52:00 PM 25.2181 -91.7973 149° Southeast  Level FlightAware Approximate
Sat 07:53:00 PM 25.1113 -91.7280 150° Southeast  Level FlightAware Approximate
Sat 07:54:00 PM 25.0046 -91.6587 150° Southeast  Level FlightAware Approximate
Sat 07:55:00 PM 24.8978 -91.5896 150° Southeast  Level FlightAware Approximate
Sat 07:56:00 PM 24.7909 -91.5206 150° Southeast  Level FlightAware Approximate
Sat 07:57:00 PM 24.6841 -91.4517 150° Southeast  Level FlightAware Approximate
Sat 07:58:00 PM 24.5767 -91.3826 150° Southeast  Level FlightAware Approximate
Sat 07:59:00 PM 24.4676 -91.3171 155° Southeast  Level FlightAware Approximate
Sat 08:00:00 PM 24.3544 -91.2605 155° Southeast  Level FlightAware Approximate
Sat 08:01:00 PM 24.2410 -91.2045 157° South  Level FlightAware Approximate
Sat 08:02:00 PM 24.1268 -91.1503 157° South  Level FlightAware Approximate
Sat 08:03:00 PM 24.0127 -91.0963 157° South  Level FlightAware Approximate
Sat 08:04:00 PM 23.8988 -91.0416 156° South  Level FlightAware Approximate
Sat 08:05:00 PM 23.7852 -90.9861 156° South  Level FlightAware Approximate
Sat 08:06:00 PM 23.6716 -90.9306 156° South  Level FlightAware Approximate
Sat 08:07:00 PM 23.5581 -90.8753 156° South  Level FlightAware Approximate
Sat 08:08:00 PM 23.4444 -90.8201 156° South  Level FlightAware Approximate
Sat 08:09:00 PM 23.3308 -90.7649 156° South  Level FlightAware Approximate
Sat 08:10:00 PM 23.2168 -90.7108 157° South  Level FlightAware Approximate
Sat 08:11:00 PM 23.1026 -90.6572 157° South  Level FlightAware Approximate
Sat 08:12:00 PM 22.9884 -90.6036 157° South  Level FlightAware Approximate
Sat 08:13:00 PM 22.8742 -90.5501 157° South  Level FlightAware Approximate
Sat 08:14:00 PM 22.7600 -90.4967 157° South  Level FlightAware Approximate
Sat 08:15:00 PM 22.6457 -90.4434 157° South  Level FlightAware Approximate
Sat 08:16:00 PM 22.5314 -90.3902 157° South  Level FlightAware Approximate
Sat 08:17:00 PM 22.4172 -90.3369 157° South  Level FlightAware Approximate
Sat 08:18:00 PM 22.3030 -90.2836 157° South  Level FlightAware Approximate
Sat 08:19:00 PM 22.1888 -90.2304 157° South  Level FlightAware Approximate
Sat 08:20:00 PM 22.0745 -90.1773 157° South  Level FlightAware Approximate
Sat 08:21:00 PM 21.9603 -90.1243 157° South  Level FlightAware Approximate
Sat 08:22:00 PM 21.8460 -90.0713 157° South  Level FlightAware Approximate
Sat 08:23:00 PM 21.7317 -90.0185 157° South  Level FlightAware Approximate
Sat 08:24:00 PM 21.6174 -89.9657 157° South  Level FlightAware Approximate
Sat 08:25:00 PM 21.5031 -89.9128 157° South  Level FlightAware Approximate
Sat 08:26:00 PM 21.3889 -89.8599 157° South  Level FlightAware Approximate
Sat 08:27:00 PM 21.2739 -89.8068 157° South  Level FlightAware Approximate
Sat 08:28:00 PM 21.1589 -89.7538 157° South  Level FlightAware Approximate
Sat 08:29:00 PM 21.0439 -89.7009 157° South  Level FlightAware Approximate
Sat 08:30:00 PM 20.9286 -89.6496 176° South  Level FlightAware Approximate
Sat 08:31:00 PM 20.8037 -89.6397 176° South  Level FlightAware Approximate
Sat 08:32:00 PM 20.6789 -89.6299 176° South  Level FlightAware Approximate
Sat 08:33:00 PM 20.5541 -89.6200 176° South  Level FlightAware Approximate
Sat 08:34:00 PM 20.4293 -89.6102 176° South  Level FlightAware Approximate
Sat 08:35:00 PM 20.3045 -89.6003 176° South  Level FlightAware Approximate
Sat 08:36:00 PM 20.1797 -89.5905 176° South  Level FlightAware Approximate
Sat 08:37:00 PM 20.0549 -89.5807 176° South  Level FlightAware Approximate
Sat 08:38:00 PM 19.9301 -89.5710 176° South  Level FlightAware Approximate
Sat 08:39:00 PM 19.8053 -89.5612 176° South  Level FlightAware Approximate
Sat 08:40:00 PM 19.6805 -89.5515 176° South  Level FlightAware Approximate
Sat 08:41:00 PM 19.5556 -89.5417 176° South  Level FlightAware Approximate
Sat 08:42:00 PM 19.4308 -89.5320 176° South  Level FlightAware Approximate
Sat 08:43:00 PM 19.3060 -89.5223 176° South  Level FlightAware Approximate
Sat 08:44:00 PM 19.1811 -89.5142 177° South  Level FlightAware Approximate
Sat 08:45:00 PM 19.0560 -89.5084 177° South  Level FlightAware Approximate
Sat 08:46:00 PM 18.9310 -89.5025 177° South  Level FlightAware Approximate
Sat 08:47:00 PM 18.8060 -89.4967 177° South  Level FlightAware Approximate
Sat 08:48:00 PM 18.6810 -89.4908 177° South  Level FlightAware Approximate
Sat 08:49:00 PM 18.5559 -89.4850 177° South  Level FlightAware Approximate
Sat 08:50:00 PM 18.4309 -89.4792 177° South  Level FlightAware Approximate
Sat 08:51:00 PM 18.3059 -89.4734 177° South  Level FlightAware Approximate
Sat 08:52:00 PM 18.1808 -89.4676 177° South  Level FlightAware Approximate
Sat 08:53:00 PM 18.0558 -89.4618 177° South  Level FlightAware Approximate
Sat 08:54:00 PM 17.9308 -89.4560 177° South  Level FlightAware Approximate
Sat 08:55:00 PM 17.8057 -89.4503 177° South  Level FlightAware Approximate
Sat 08:56:00 PM 17.6812 -89.4368 174° South  Level FlightAware Approximate
Sat 08:57:00 PM 17.5566 -89.4253 175° South  Level FlightAware Approximate
Sat 08:58:00 PM 17.4318 -89.4147 175° South  Level FlightAware Approximate
Sat 08:59:00 PM 17.3071 -89.4041 175° South  Level FlightAware Approximate
Sat 09:00:00 PM 17.1824 -89.3935 175° South  Level FlightAware Approximate
Sat 09:01:00 PM 17.0576 -89.3829 175° South  Level FlightAware Approximate
Sat 09:02:00 PM 16.9329 -89.3723 175° South  Level FlightAware Approximate
Sat 09:03:00 PM 16.8079 -89.3667 180° South  Level FlightAware Approximate
Sat 09:04:00 PM 16.7012 -89.4325 213° Southwest  Level FlightAware Approximate
Sat 09:05:00 PM 16.5932 -89.4985 210° Southwest  Level FlightAware Approximate
Sat 09:06:00 PM 16.4851 -89.5643 210° Southwest  Level FlightAware Approximate
Sat 09:07:00 PM 16.3770 -89.6300 210° Southwest  Level FlightAware Approximate
Sat 09:08:00 PM 16.2668 -89.6916 206° Southwest  Level FlightAware Approximate
Sat 09:09:00 PM 16.1586 -89.7571 211° Southwest  Level FlightAware Approximate
Sat 09:10:00 PM 16.0539 -89.8282 214° Southwest  Level FlightAware Approximate
Sat 09:11:00 PM 15.9482 -89.8978 210° Southwest  Level FlightAware Approximate
Sat 09:12:00 PM 15.8398 -89.9628 210° Southwest  Level FlightAware Approximate
Sat 09:13:00 PM 15.7309 -90.0269 207° Southwest  Level FlightAware Approximate
Sat 09:14:00 PM 15.6196 -90.0863 207° Southwest  Level FlightAware Approximate
Sat 09:15:00 PM 15.5082 -90.1456 207° Southwest  Level FlightAware Approximate
Sat 09:16:00 PM 15.4025 -90.2150 213° Southwest  Level FlightAware Approximate
Sat 09:17:00 PM 15.2972 -90.2851 211° Southwest  Level FlightAware Approximate
Sat 09:18:00 PM 15.1900 -90.3521 211° Southwest  Level FlightAware Approximate
Sat 09:19:00 PM 15.0820 -90.4175 210° Southwest  Level FlightAware Approximate
Sat 09:20:00 PM 14.9696 -90.4667 180° South  Level FlightAware Approximate
Sat 09:21:00 PM 14.8450 -90.4788 186° South  Level FlightAware Approximate
Sat 09:22:00 PM 14.7226 -90.5000 180° South  Level FlightAware Approximate
Sat 09:23:00 PM 14.5990 -90.5167 180° South  Level FlightAware Approximate
Sat 09:24:00 PM 14.5833 -90.5275 180° South  Level Estimated
Sat 09:25:00 PM 14.5833 -90.5275 180° South  Level Estimated
Sat 09:26:00 PM 14.5833 -90.5275 180° South  Level Estimated
Sat 09:27:00 PM 14.5833 -90.5275 180° South  Level Estimated

Login

Don't have an account? Register now (free) for customized features, flight alerts, and more!